KSUN/SUN METAR and TAF weather

Enter ICAO airport designator
Station Type Date Time Source
KSUN METAR 2019/08/25 01:47 UTC NOAA

KSUN 250147Z 26008KT 10SM SKC 26/02 A3001


Station Type Date Time Source
KSUN Decoded METAR 2019/08/25 01:47 UTC NOAA

Station name not available
Aug 24, 2019 - 09:47 PM EDT / 2019.08.25 0147 UTC
Wind: from the W (260 degrees) at 9 MPH (8 KT):0
Visibility: 10 mile(s):0
Sky conditions: clear
Temperature: 78 F (26 C)
Dew Point: 35 F (2 C)
Relative Humidity: 20%
Pressure (altimeter): 30.01 in. Hg (1016 hPa)
ob: KSUN 250147Z 26008KT 10SM SKC 26/02 A3001
cycle: 2

Station Type Date Time Source
KSUN TAF 2019/08/24 18:39 UTC NOAA

TAF KSUN 241737Z 2418/2524 16008KT P6SM SKC
FM242000 24010KT P6SM SKC
FM242200 25015G25KT P6SM SKC
FM250000 31015G25KT P6SM SKC
FM250200 32008KT P6SM SKC
FM251800 25015G25KT P6SM SKC

Example: see airport list